Time;durP1;ratioP1;P1;durP2;ratioP2;P2;SDS_P1;SDS_P2;PMS_P1;PMS_P2;Temp;Humidity;BMP_temperature;BMP_pressure;BME280_temperature;BME280_humidity;BME280_pressure;Samples;Min_cycle;Max_cycle;Signal;HPM_P1;HPM_P2
2023/05/25 00:00:43;;;;;;;16.70;4.20;;;;;;;8.84;82.09;100909.98;110767;1261;22218;-56
2023/05/25 00:03:33;;;;;;;18.80;4.70;;;;;;;8.80;82.34;100908.39;110809;1267;22402;-55
2023/05/25 00:06:04;;;;;;;17.30;4.20;;;;;;;8.76;82.54;100906.85;110825;1264;23472;-56
2023/05/25 00:08:35;;;;;;;12.90;4.70;;;;;;;8.73;82.48;100910.04;110790;1263;22241;-56
2023/05/25 00:11:06;;;;;;;15.40;3.90;;;;;;;8.72;82.38;100905.97;110765;1264;22344;-56
2023/05/25 00:13:37;;;;;;;15.40;4.10;;;;;;;8.70;82.67;100904.36;110788;1264;22163;-56
2023/05/25 00:16:09;;;;;;;15.30;4.70;;;;;;;8.69;82.79;100905.11;110779;1264;22198;-56
2023/05/25 00:18:40;;;;;;;16.60;5.10;;;;;;;8.69;82.92;100904.80;110784;1264;22191;-55
2023/05/25 00:21:11;;;;;;;19.60;4.90;;;;;;;8.68;83.16;100909.12;110829;1260;22386;-56
2023/05/25 00:23:42;;;;;;;18.40;5.00;;;;;;;8.65;83.10;100907.15;110785;1256;22214;-56
2023/05/25 00:26:12;;;;;;;20.00;5.40;;;;;;;8.62;82.99;100907.83;110801;1271;22889;-56
2023/05/25 00:28:43;;;;;;;12.60;4.20;;;;;;;8.58;82.95;100902.15;110742;1264;22298;-55
2023/05/25 00:31:14;;;;;;;12.60;3.70;;;;;;;8.53;83.05;100906.70;110760;1260;22183;-55
2023/05/25 00:33:45;;;;;;;17.20;4.70;;;;;;;8.51;83.42;100907.47;110795;1255;22387;-56
2023/05/25 00:36:16;;;;;;;15.00;5.00;;;;;;;8.51;83.47;100911.84;110807;1264;22294;-56
2023/05/25 00:38:47;;;;;;;12.80;3.90;;;;;;;8.51;83.83;100910.75;110798;1264;22242;-56
2023/05/25 00:41:18;;;;;;;12.90;3.90;;;;;;;8.49;83.41;100915.17;110801;1264;22345;-54
2023/05/25 00:43:49;;;;;;;13.40;4.10;;;;;;;8.48;84.07;100916.73;110786;1264;22209;-54
2023/05/25 00:46:21;;;;;;;11.90;3.00;;;;;;;8.47;84.14;100917.79;110786;1264;23315;-55
2023/05/25 00:48:55;;;;;;;19.30;4.30;;;;;;;8.47;84.11;100915.48;110735;1264;22129;-56
2023/05/25 00:51:26;;;;;;;17.20;4.80;;;;;;;8.48;84.62;100915.95;110795;1264;22208;-55
2023/05/25 00:53:57;;;;;;;17.00;4.80;;;;;;;8.49;84.97;100921.30;110790;1264;22263;-54
2023/05/25 00:56:33;;;;;;;20.00;5.50;;;;;;;8.51;86.01;100918.94;110780;1264;22384;-57
2023/05/25 00:59:06;;;;;;;15.50;5.20;;;;;;;8.52;86.16;100919.85;110812;1264;22176;-57
2023/05/25 01:01:40;;;;;;;14.80;6.00;;;;;;;8.50;86.11;100920.95;110780;1260;22896;-55
2023/05/25 01:04:15;;;;;;;20.10;5.20;;;;;;;8.47;85.92;100920.73;110796;1264;22276;-56
2023/05/25 01:06:52;;;;;;;19.80;6.00;;;;;;;8.46;85.73;100921.95;110829;1264;22159;-57
2023/05/25 01:09:24;;;;;;;20.40;5.30;;;;;;;8.46;85.62;100920.75;110807;1260;22472;-57
2023/05/25 01:11:56;;;;;;;16.70;5.70;;;;;;;8.45;85.48;100918.17;110045;1263;22756;-56
2023/05/25 01:14:28;;;;;;;23.40;6.10;;;;;;;8.44;85.48;100918.84;110817;1263;22415;-56
2023/05/25 01:16:59;;;;;;;21.20;6.30;;;;;;;8.42;86.03;100920.80;110806;1271;22180;-56
2023/05/25 01:19:32;;;;;;;17.60;5.40;;;;;;;8.42;85.83;100920.52;110770;1264;22387;-56
2023/05/25 01:22:08;;;;;;;17.80;4.70;;;;;;;8.40;85.56;100928.67;110771;1261;22348;-57
2023/05/25 01:24:44;;;;;;;20.10;5.50;;;;;;;8.38;85.33;100929.21;110796;1264;22160;-56
2023/05/25 01:27:22;;;;;;;16.60;4.40;;;;;;;8.36;85.19;100931.67;110805;1260;22120;-55
2023/05/25 01:29:54;;;;;;;14.00;4.70;;;;;;;8.32;85.19;100930.92;110796;1267;22201;-56
2023/05/25 01:32:26;;;;;;;14.90;5.50;;;;;;;8.28;85.03;100932.89;110809;1264;22124;-57
2023/05/25 01:34:58;;;;;;;17.60;4.60;;;;;;;8.25;85.11;100930.05;110767;1271;22321;-55
2023/05/25 01:37:30;;;;;;;16.60;5.00;;;;;;;8.21;85.11;100930.61;110782;1264;22478;-56
2023/05/25 01:40:02;;;;;;;15.30;4.40;;;;;;;8.18;85.22;100939.30;110801;1256;22459;-55
2023/05/25 01:42:33;;;;;;;14.30;4.30;;;;;;;8.15;85.36;100940.27;110866;1267;22968;-57
2023/05/25 01:45:05;;;;;;;14.40;5.00;;;;;;;8.15;85.58;100938.34;110844;1264;22323;-57
2023/05/25 01:47:44;;;;;;;13.70;4.90;;;;;;;8.16;85.38;100939.77;110823;1263;22326;-56
2023/05/25 01:50:22;;;;;;;14.00;4.80;;;;;;;8.14;85.24;100942.44;110818;1271;22214;-56
2023/05/25 01:52:59;;;;;;;10.90;4.00;;;;;;;8.11;85.00;100943.66;110761;1271;22209;-57
2023/05/25 01:55:36;;;;;;;14.40;4.30;;;;;;;8.06;85.04;100940.46;110807;1264;22311;-57
2023/05/25 01:58:10;;;;;;;16.50;5.70;;;;;;;8.02;85.39;100934.93;110842;1259;22156;-56
2023/05/25 02:00:42;;;;;;;14.90;4.30;;;;;;;8.01;85.61;100937.11;110800;1263;22264;-56
2023/05/25 02:03:13;;;;;;;12.80;4.20;;;;;;;8.01;85.66;100934.91;110817;1264;22165;-57
2023/05/25 02:05:45;;;;;;;19.40;5.30;;;;;;;8.00;85.45;100939.88;110788;1263;22390;-56
2023/05/25 02:08:16;;;;;;;15.30;4.80;;;;;;;7.96;85.40;100946.80;110848;1270;22158;-56
2023/05/25 02:10:47;;;;;;;13.80;4.30;;;;;;;7.94;85.39;100949.67;110787;1268;22241;-57
2023/05/25 02:13:18;;;;;;;12.00;4.20;;;;;;;7.91;85.39;100948.17;110805;1260;22208;-57
2023/05/25 02:15:49;;;;;;;13.70;4.90;;;;;;;7.87;85.41;100946.69;110798;1264;22237;-55
2023/05/25 02:18:21;;;;;;;15.00;4.50;;;;;;;7.85;85.58;100950.02;110802;1256;22937;-56
2023/05/25 02:20:52;;;;;;;14.40;4.60;;;;;;;7.84;85.88;100956.02;110763;1256;22197;-55
2023/05/25 02:23:22;;;;;;;15.30;3.90;;;;;;;7.85;86.09;100958.65;110817;1256;22850;-56
2023/05/25 02:25:54;;;;;;;16.50;4.30;;;;;;;7.88;86.43;100957.23;110812;1264;22170;-57
2023/05/25 02:28:25;;;;;;;15.20;5.20;;;;;;;7.92;86.55;100952.59;110816;1264;23008;-53
2023/05/25 02:30:56;;;;;;;15.40;4.70;;;;;;;7.94;86.98;100956.09;110816;1259;23469;-53
2023/05/25 02:33:27;;;;;;;21.20;5.70;;;;;;;7.98;87.10;100953.36;110795;1261;22283;-53
2023/05/25 02:35:58;;;;;;;16.10;5.30;;;;;;;8.02;87.35;100948.70;110767;1263;22207;-53
2023/05/25 02:38:29;;;;;;;24.20;6.60;;;;;;;8.06;87.59;100949.38;110810;1263;22363;-56
2023/05/25 02:41:00;;;;;;;21.80;5.60;;;;;;;8.10;88.01;100953.69;110811;1271;22219;-55
2023/05/25 02:43:31;;;;;;;19.30;6.40;;;;;;;8.14;88.06;100952.36;110798;1259;22398;-54
2023/05/25 02:46:02;;;;;;;17.30;5.40;;;;;;;8.18;88.28;100950.98;110785;1264;22233;-55
2023/05/25 02:48:33;;;;;;;22.70;6.90;;;;;;;8.21;88.37;100945.95;110871;1264;23063;-56
2023/05/25 02:51:04;;;;;;;21.60;6.30;;;;;;;8.24;88.78;100944.44;110786;1260;22344;-56
2023/05/25 02:53:35;;;;;;;20.40;6.60;;;;;;;8.27;88.78;100943.00;110796;1263;23203;-56
2023/05/25 02:56:09;;;;;;;24.40;8.30;;;;;;;8.30;88.90;100943.39;110800;1271;23474;-54
2023/05/25 02:58:40;;;;;;;21.50;6.30;;;;;;;8.34;89.30;100941.66;110781;1255;22398;-55
2023/05/25 03:01:16;;;;;;;21.20;7.60;;;;;;;8.38;89.34;100941.55;110792;1264;22186;-55
2023/05/25 03:03:51;;;;;;;17.50;6.10;;;;;;;8.39;89.37;100937.06;110831;1255;22252;-57
2023/05/25 03:06:22;;;;;;;18.20;5.90;;;;;;;8.41;89.43;100936.67;110797;1263;23018;-55
2023/05/25 03:08:53;;;;;;;20.40;6.60;;;;;;;8.44;89.56;100937.36;110787;1263;23324;-55
2023/05/25 03:11:24;;;;;;;20.20;6.80;;;;;;;8.47;89.72;100937.98;110828;1263;22297;-55
2023/05/25 03:13:55;;;;;;;15.90;6.70;;;;;;;8.50;89.78;100945.36;110768;1265;22229;-56
2023/05/25 03:16:26;;;;;;;19.80;7.80;;;;;;;8.53;90.01;100949.94;110808;1255;22284;-56
2023/05/25 03:18:57;;;;;;;18.50;7.10;;;;;;;8.56;90.19;100955.98;110817;1260;22158;-54
2023/05/25 03:21:27;;;;;;;22.20;7.20;;;;;;;8.56;90.11;100957.86;110820;1264;22823;-56
2023/05/25 03:23:59;;;;;;;24.30;6.80;;;;;;;8.57;90.13;100962.14;110816;1264;22568;-56
2023/05/25 03:26:31;;;;;;;20.80;6.50;;;;;;;8.59;90.23;100964.91;110816;1264;22828;-55
2023/05/25 03:29:01;;;;;;;20.20;6.60;;;;;;;8.62;90.50;100964.58;110806;1271;22915;-55
2023/05/25 03:31:32;;;;;;;23.10;7.40;;;;;;;8.64;90.85;100968.09;110770;1264;22338;-56
2023/05/25 03:34:05;;;;;;;20.70;6.80;;;;;;;8.67;91.14;100969.58;110821;1264;22935;-54
2023/05/25 03:36:36;;;;;;;22.50;7.10;;;;;;;8.71;91.09;100974.06;110795;1261;22307;-55
2023/05/25 03:39:08;;;;;;;18.90;6.70;;;;;;;8.73;91.29;100976.52;110822;1260;22206;-53
2023/05/25 03:41:39;;;;;;;22.90;7.50;;;;;;;8.76;91.26;100976.38;110817;1263;22184;-56
2023/05/25 03:44:10;;;;;;;23.10;8.00;;;;;;;8.78;91.41;100977.80;110811;1265;22166;-56
2023/05/25 03:46:41;;;;;;;24.10;8.30;;;;;;;8.81;91.44;100978.19;110814;1255;22322;-56
2023/05/25 03:49:13;;;;;;;19.80;7.90;;;;;;;8.84;91.70;100974.33;110802;1264;22154;-55
2023/05/25 03:51:44;;;;;;;22.20;8.00;;;;;;;8.88;91.86;100978.42;110804;1264;22119;-56
2023/05/25 03:54:15;;;;;;;22.90;8.00;;;;;;;8.91;92.05;100977.42;110814;1264;22154;-54
2023/05/25 03:56:45;;;;;;;20.40;8.10;;;;;;;8.96;92.22;100977.50;110790;1263;22302;-55
2023/05/25 03:59:17;;;;;;;21.80;9.10;;;;;;;9.01;92.54;100972.25;110811;1271;22214;-56
2023/05/25 04:01:48;;;;;;;25.80;8.90;;;;;;;9.06;92.80;100975.91;110786;1271;22228;-56
2023/05/25 04:04:19;;;;;;;23.00;9.50;;;;;;;9.11;92.87;100974.54;108443;1256;23425;-56
2023/05/25 04:06:50;;;;;;;21.80;8.90;;;;;;;9.17;93.08;100974.41;106691;1265;22518;-56
2023/05/25 04:09:21;;;;;;;25.40;9.90;;;;;;;9.23;93.30;100976.81;106689;1271;22525;-56
2023/05/25 04:11:52;;;;;;;20.20;8.40;;;;;;;9.28;93.52;100979.27;110805;1264;22869;-56
2023/05/25 04:14:23;;;;;;;26.80;8.50;;;;;;;9.32;93.55;100979.84;110798;1263;22205;-57
2023/05/25 04:16:54;;;;;;;21.50;8.30;;;;;;;9.36;93.66;100982.95;110751;1271;23412;-55
2023/05/25 04:19:24;;;;;;;20.20;7.80;;;;;;;9.40;93.64;100984.15;110776;1256;22207;-56
2023/05/25 04:21:56;;;;;;;24.00;7.70;;;;;;;9.44;93.57;100989.17;110772;1259;22500;-55
2023/05/25 04:24:26;;;;;;;25.10;8.40;;;;;;;9.48;93.65;100989.81;110777;1259;23019;-55
2023/05/25 04:26:57;;;;;;;21.20;7.50;;;;;;;9.52;93.83;100991.65;110783;1264;22845;-56
2023/05/25 04:29:30;;;;;;;21.10;6.90;;;;;;;9.56;93.93;100994.15;110759;1256;23271;-56
2023/05/25 04:32:01;;;;;;;19.80;6.90;;;;;;;9.60;94.03;100991.39;110772;1271;22136;-56
2023/05/25 04:34:32;;;;;;;19.50;7.50;;;;;;;9.64;93.99;100994.48;110801;1260;22439;-55
2023/05/25 04:37:04;;;;;;;22.20;8.00;;;;;;;9.69;94.10;100993.93;110798;1267;22410;-57
2023/05/25 04:39:35;;;;;;;21.50;7.90;;;;;;;9.73;94.25;100995.25;110775;1264;22327;-55
2023/05/25 04:42:06;;;;;;;23.10;8.40;;;;;;;9.78;94.16;100999.70;110799;1265;22374;-55
2023/05/25 04:44:38;;;;;;;19.20;7.50;;;;;;;9.83;94.42;101001.98;110805;1256;22858;-54
2023/05/25 04:47:11;;;;;;;22.00;7.60;;;;;;;9.88;94.32;100997.88;110837;1271;22274;-55
2023/05/25 04:49:42;;;;;;;20.70;7.90;;;;;;;9.93;94.35;100998.00;110794;1256;22205;-54
2023/05/25 04:52:13;;;;;;;22.40;8.10;;;;;;;9.98;94.41;101001.11;110753;1267;22279;-54
2023/05/25 04:54:43;;;;;;;24.60;8.80;;;;;;;10.02;94.48;100998.15;110751;1260;23204;-55
2023/05/25 04:57:14;;;;;;;21.60;8.40;;;;;;;10.06;94.37;100999.98;110759;1265;22140;-54
2023/05/25 04:59:45;;;;;;;23.20;9.20;;;;;;;10.10;94.38;101000.64;110788;1256;22464;-55
2023/05/25 05:02:16;;;;;;;26.00;8.60;;;;;;;10.15;94.41;100997.13;110761;1271;22237;-56
2023/05/25 05:04:47;;;;;;;24.40;8.80;;;;;;;10.19;94.41;100997.36;110789;1264;22190;-55
2023/05/25 05:07:18;;;;;;;21.30;9.30;;;;;;;10.22;94.21;100998.90;110863;1256;22150;-58
2023/05/25 05:09:49;;;;;;;20.10;9.40;;;;;;;10.26;94.12;101001.40;110823;1264;22119;-54
2023/05/25 05:12:20;;;;;;;23.70;9.50;;;;;;;10.28;94.09;101007.98;110825;1260;22390;-54
2023/05/25 05:14:51;;;;;;;24.70;9.20;;;;;;;10.32;94.01;101008.05;110754;1265;22345;-53
2023/05/25 05:17:22;;;;;;;24.30;8.60;;;;;;;10.36;94.04;101010.48;110773;1263;22349;-55
2023/05/25 05:19:53;;;;;;;26.50;10.60;;;;;;;10.39;94.22;101016.48;110808;1255;22234;-52
2023/05/25 05:22:24;;;;;;;22.60;8.80;;;;;;;10.42;93.97;101019.95;110779;1260;22234;-56
2023/05/25 05:24:55;;;;;;;22.10;8.50;;;;;;;10.46;94.11;101020.98;110773;1255;22946;-54
2023/05/25 05:27:26;;;;;;;26.70;9.20;;;;;;;10.50;93.99;101022.52;110775;1265;22202;-63
2023/05/25 05:29:57;;;;;;;21.90;9.20;;;;;;;10.52;93.64;101022.36;110787;1265;22426;-54
2023/05/25 05:32:28;;;;;;;25.40;9.30;;;;;;;10.55;93.72;101030.84;107425;1253;22668;-52
2023/05/25 05:35:00;;;;;;;25.00;8.70;;;;;;;10.58;93.77;101026.65;110333;1256;22520;-56
2023/05/25 05:37:30;;;;;;;25.80;9.80;;;;;;;10.62;93.52;101025.30;106732;1271;22740;-56
2023/05/25 05:40:02;;;;;;;26.00;10.70;;;;;;;10.65;93.61;101026.94;106783;1265;25481;-57
2023/05/25 05:42:35;;;;;;;20.60;9.00;;;;;;;10.69;93.61;101032.42;110694;1264;22161;-58
2023/05/25 05:45:08;;;;;;;31.80;10.90;;;;;;;10.72;93.52;101039.02;107169;1268;22563;-59
2023/05/25 05:47:38;;;;;;;32.00;13.00;;;;;;;10.76;93.45;101038.87;110756;1256;22417;-58
2023/05/25 05:50:11;;;;;;;27.30;11.20;;;;;;;10.80;93.58;101039.95;110754;1264;22267;-58
2023/05/25 05:52:42;;;;;;;28.50;10.40;;;;;;;10.83;93.41;101040.49;110812;1260;22268;-57
2023/05/25 05:55:13;;;;;;;25.90;11.20;;;;;;;10.86;93.32;101039.95;110772;1255;22251;-58
2023/05/25 05:57:44;;;;;;;27.70;10.40;;;;;;;10.90;93.34;101039.21;110781;1259;22676;-58
2023/05/25 06:00:17;;;;;;;24.90;9.60;;;;;;;10.95;93.42;101042.45;110747;1255;22229;-55
2023/05/25 06:02:48;;;;;;;29.20;10.00;;;;;;;11.00;93.18;101043.27;108797;1265;22521;-54
2023/05/25 06:05:20;;;;;;;26.20;10.40;;;;;;;11.03;92.85;101042.84;110731;1264;22324;-57
2023/05/25 06:07:51;;;;;;;28.20;10.00;;;;;;;11.07;92.77;101045.24;110794;1271;22208;-61
2023/05/25 06:10:22;;;;;;;25.90;9.20;;;;;;;11.13;92.87;101048.41;110740;1256;22256;-56
2023/05/25 06:12:53;;;;;;;33.10;10.60;;;;;;;11.16;92.77;101049.59;109898;1259;22672;-55
2023/05/25 06:15:24;;;;;;;21.50;8.80;;;;;;;11.19;92.40;101051.71;106673;1256;22514;-56
2023/05/25 06:17:55;;;;;;;27.20;9.30;;;;;;;11.21;92.39;101054.51;106656;1256;22641;-56
2023/05/25 06:20:26;;;;;;;22.90;9.00;;;;;;;11.24;92.29;101055.58;106651;1256;22576;-56
2023/05/25 06:22:57;;;;;;;22.10;8.60;;;;;;;11.26;92.13;101051.58;106621;1255;22525;-55
2023/05/25 06:25:28;;;;;;;27.60;9.40;;;;;;;11.29;92.07;101054.08;106561;1268;22732;-55
2023/05/25 06:27:59;;;;;;;29.60;10.30;;;;;;;11.32;92.09;101051.88;106656;1256;22542;-58
2023/05/25 06:30:29;;;;;;;26.90;8.60;;;;;;;11.36;92.12;101058.43;106567;1259;24278;-57
2023/05/25 06:33:00;;;;;;;27.30;10.00;;;;;;;11.38;91.89;101051.86;106637;1271;25409;-55
2023/05/25 06:35:31;;;;;;;21.90;9.20;;;;;;;11.43;92.00;101050.09;106782;1270;22531;-56
2023/05/25 06:38:03;;;;;;;25.40;8.50;;;;;;;11.45;91.92;101050.68;106805;1270;22627;-58
2023/05/25 06:40:33;;;;;;;24.30;9.00;;;;;;;11.48;91.79;101049.76;106708;1255;22587;-55
2023/05/25 06:43:04;;;;;;;21.30;7.60;;;;;;;11.53;91.83;101048.41;106727;1268;25282;-56
2023/05/25 06:45:35;;;;;;;35.80;9.20;;;;;;;11.57;91.55;101050.16;106818;1271;24239;-55
2023/05/25 06:48:06;;;;;;;23.30;8.10;;;;;;;11.62;91.55;101051.23;106711;1268;22716;-57
2023/05/25 06:50:38;;;;;;;21.90;8.10;;;;;;;11.65;91.48;101053.64;110774;1264;22437;-55
2023/05/25 06:53:10;;;;;;;30.00;8.80;;;;;;;11.69;91.51;101052.51;110808;1271;22660;-57
2023/05/25 06:55:40;;;;;;;20.50;7.20;;;;;;;11.75;91.53;101047.71;110805;1256;22902;-55
2023/05/25 06:58:12;;;;;;;22.80;9.20;;;;;;;11.81;91.49;101050.33;110766;1256;22147;-56
2023/05/25 07:00:42;;;;;;;22.10;7.90;;;;;;;11.86;91.02;101054.17;110772;1262;22982;-57
2023/05/25 07:03:14;;;;;;;22.00;7.00;;;;;;;11.91;90.91;101050.55;107407;1271;25775;-55
2023/05/25 07:05:44;;;;;;;26.20;8.00;;;;;;;11.96;90.94;101052.20;106689;1256;24250;-57
2023/05/25 07:08:15;;;;;;;21.60;8.00;;;;;;;12.00;90.47;101050.98;106685;1271;24229;-54
2023/05/25 07:10:46;;;;;;;23.40;7.30;;;;;;;12.03;90.51;101047.20;106720;1255;23182;-57
2023/05/25 07:13:17;;;;;;;22.70;6.90;;;;;;;12.09;90.53;101042.32;106672;1271;24304;-53
2023/05/25 07:15:48;;;;;;;28.40;7.70;;;;;;;12.14;90.34;101040.96;106662;1266;22570;-55
2023/05/25 07:18:19;;;;;;;24.80;8.10;;;;;;;12.20;90.42;101045.46;106758;1256;22529;-54
2023/05/25 07:20:50;;;;;;;20.00;7.30;;;;;;;12.26;90.43;101041.27;106749;1256;22511;-53
2023/05/25 07:23:21;;;;;;;18.00;6.70;;;;;;;12.32;90.12;101041.41;106688;1271;25261;-56
2023/05/25 07:25:52;;;;;;;19.30;6.60;;;;;;;12.36;90.00;101042.80;106624;1271;26787;-56
2023/05/25 07:28:23;;;;;;;26.20;6.80;;;;;;;12.43;90.02;101042.39;106662;1265;25347;-56
2023/05/25 07:30:55;;;;;;;21.00;7.40;;;;;;;12.48;89.95;101042.08;106636;1268;25218;-58
2023/05/25 07:33:26;;;;;;;22.10;7.00;;;;;;;12.53;89.76;101047.89;106700;1268;22545;-55
2023/05/25 07:35:56;;;;;;;23.20;7.90;;;;;;;12.59;89.70;101052.35;106697;1256;22564;-57
2023/05/25 07:38:27;;;;;;;22.90;7.40;;;;;;;12.63;89.59;101052.70;106680;1256;22547;-58
2023/05/25 07:40:58;;;;;;;26.10;7.20;;;;;;;12.68;89.36;101053.73;106777;1271;23086;-55
2023/05/25 07:43:30;;;;;;;24.30;8.50;;;;;;;12.71;89.10;101054.88;106685;1256;22627;-56
2023/05/25 07:46:01;;;;;;;19.80;6.60;;;;;;;12.74;88.96;101052.16;110758;1268;22156;-56
2023/05/25 07:48:32;;;;;;;25.20;8.00;;;;;;;12.80;89.05;101055.23;110771;1260;22921;-59
2023/05/25 07:51:03;;;;;;;25.60;7.00;;;;;;;12.85;88.80;101061.27;110784;1256;22305;-56
2023/05/25 07:53:35;;;;;;;27.40;8.30;;;;;;;12.91;88.65;101063.64;110758;1264;22317;-59
2023/05/25 07:56:06;;;;;;;21.90;7.10;;;;;;;12.96;88.78;101062.64;110777;1271;22278;-55
2023/05/25 07:58:37;;;;;;;26.20;7.40;;;;;;;13.03;88.40;101059.88;110796;1264;22170;-58
2023/05/25 08:01:07;;;;;;;26.90;7.50;;;;;;;13.08;88.37;101063.08;110757;1264;22229;-58
2023/05/25 08:03:38;;;;;;;18.80;7.00;;;;;;;13.14;88.09;101063.83;110787;1265;22833;-57
2023/05/25 08:06:09;;;;;;;30.00;7.90;;;;;;;13.18;87.82;101070.39;110759;1260;23220;-54
2023/05/25 08:08:40;;;;;;;21.70;6.80;;;;;;;13.23;87.76;101069.73;110787;1264;22203;-58
2023/05/25 08:11:11;;;;;;;23.50;6.90;;;;;;;13.30;87.87;101067.70;110769;1271;22279;-58
2023/05/25 08:13:43;;;;;;;32.50;6.80;;;;;;;13.39;87.41;101072.21;110735;1259;22280;-56
2023/05/25 08:16:14;;;;;;;21.60;6.70;;;;;;;13.44;87.11;101071.30;110755;1265;22204;-58
2023/05/25 08:18:45;;;;;;;22.80;7.70;;;;;;;13.50;86.95;101067.95;110753;1259;22168;-55
2023/05/25 08:21:16;;;;;;;21.50;6.80;;;;;;;13.58;86.79;101069.02;110774;1265;22144;-65
2023/05/25 08:23:49;;;;;;;19.90;7.20;;;;;;;13.65;86.77;101069.27;110740;1263;22288;-66
2023/05/25 08:26:21;;;;;;;22.80;5.90;;;;;;;13.73;86.62;101067.33;110787;1271;22202;-68
2023/05/25 08:28:52;;;;;;;22.40;6.60;;;;;;;13.78;86.03;101067.13;110788;1271;22166;-66
2023/05/25 08:31:23;;;;;;;22.00;6.20;;;;;;;13.83;85.96;101064.27;110755;1259;22936;-71
2023/05/25 08:33:54;;;;;;;19.70;6.30;;;;;;;13.87;85.74;101057.79;110713;1265;22345;-52
2023/05/25 08:36:26;;;;;;;23.80;5.80;;;;;;;13.89;85.29;101061.01;110749;1265;23020;-57
2023/05/25 08:38:56;;;;;;;19.50;6.30;;;;;;;13.93;85.47;101058.92;110791;1262;22224;-58
2023/05/25 08:41:28;;;;;;;19.40;6.20;;;;;;;13.99;85.13;101060.48;110747;1263;23424;-61
2023/05/25 08:44:04;;;;;;;21.40;6.20;;;;;;;14.05;85.32;101058.48;108555;1265;26433;-56
2023/05/25 08:46:36;;;;;;;22.60;6.70;;;;;;;14.10;84.94;101059.49;106660;1256;22544;-55
2023/05/25 08:49:11;;;;;;;19.30;6.20;;;;;;;14.12;84.75;101060.30;106938;1269;22540;-56
2023/05/25 08:51:49;;;;;;;19.40;6.70;;;;;;;14.15;83.89;101064.73;106926;1270;22521;-58
2023/05/25 08:54:23;;;;;;;21.70;6.20;;;;;;;14.15;84.34;101068.73;107008;1266;23046;-56
2023/05/25 08:56:56;;;;;;;21.50;5.90;;;;;;;14.15;84.05;101071.13;106766;1263;25311;-57
2023/05/25 08:59:37;;;;;;;20.50;5.70;;;;;;;14.13;83.57;101078.96;107182;1256;25417;-57
2023/05/25 09:02:21;;;;;;;21.80;5.80;;;;;;;14.13;83.45;101081.15;106858;1271;22538;-58
2023/05/25 09:04:52;;;;;;;16.70;5.60;;;;;;;14.14;83.73;101080.75;106893;1270;22512;-56
2023/05/25 09:07:24;;;;;;;19.90;5.70;;;;;;;14.17;83.63;101080.10;106897;1271;24360;-58
2023/05/25 09:09:56;;;;;;;16.30;5.40;;;;;;;14.20;83.11;101083.73;106961;1263;22517;-56
2023/05/25 09:12:28;;;;;;;19.50;5.80;;;;;;;14.17;82.73;101084.47;106990;1268;24207;-57
2023/05/25 09:15:00;;;;;;;22.70;6.10;;;;;;;14.15;82.87;101083.27;107286;1265;22832;-58
2023/05/25 09:17:31;;;;;;;18.60;5.60;;;;;;;14.17;83.39;101083.10;106808;1270;22517;-54
2023/05/25 09:20:02;;;;;;;19.60;6.40;;;;;;;14.20;83.04;101079.54;106938;1271;24232;-56
2023/05/25 09:22:33;;;;;;;19.70;5.10;;;;;;;14.26;83.00;101085.95;106833;1268;25381;-54
2023/05/25 09:25:07;;;;;;;17.00;5.70;;;;;;;14.34;82.73;101087.32;106790;1271;22514;-53
2023/05/25 09:27:39;;;;;;;16.90;5.70;;;;;;;14.41;82.58;101083.09;107027;1268;22526;-57
2023/05/25 09:30:12;;;;;;;16.30;5.40;;;;;;;14.50;82.64;101082.39;106964;1271;22511;-56
2023/05/25 09:32:43;;;;;;;21.80;6.20;;;;;;;14.63;82.57;101083.30;107078;1256;22520;-55
2023/05/25 09:35:15;;;;;;;18.60;4.70;;;;;;;14.72;81.87;101081.75;106755;1270;22521;-57
2023/05/25 09:37:47;;;;;;;14.00;4.70;;;;;;;14.80;81.27;101080.16;106907;1264;24219;-56
2023/05/25 09:40:19;;;;;;;21.40;5.70;;;;;;;14.89;81.93;101074.66;106833;1268;22630;-57
2023/05/25 09:42:51;;;;;;;12.10;4.60;;;;;;;15.04;81.60;101071.14;106590;1256;22981;-55
2023/05/25 09:45:24;;;;;;;16.90;4.40;;;;;;;15.10;80.17;101073.48;110748;1264;22402;-56
2023/05/25 09:47:57;;;;;;;12.30;3.90;;;;;;;15.16;80.33;101070.90;110721;1265;22441;-57
2023/05/25 09:50:31;;;;;;;18.00;4.70;;;;;;;15.24;79.82;101072.43;110736;1263;22576;-57
2023/05/25 09:53:02;;;;;;;14.30;3.60;;;;;;;15.31;80.14;101077.45;110736;1257;22394;-57
2023/05/25 09:55:33;;;;;;;16.60;4.40;;;;;;;15.44;79.32;101072.16;110794;1265;22543;-57
2023/05/25 09:58:04;;;;;;;17.10;5.10;;;;;;;15.52;79.07;101072.52;110753;1261;22309;-57
2023/05/25 10:00:35;;;;;;;11.60;3.40;;;;;;;15.62;78.90;101074.17;110750;1265;22408;-55
2023/05/25 10:03:07;;;;;;;18.20;3.60;;;;;;;15.72;78.33;101078.64;109934;1265;22527;-56
2023/05/25 10:05:38;;;;;;;14.30;3.40;;;;;;;15.77;76.81;101077.73;106630;1263;22530;-56
2023/05/25 10:08:11;;;;;;;12.90;3.50;;;;;;;15.81;77.34;101074.80;110736;1271;22315;-57
2023/05/25 10:10:42;;;;;;;12.20;3.30;;;;;;;15.86;77.01;101074.51;110735;1260;22268;-57
2023/05/25 10:13:14;;;;;;;8.50;2.90;;;;;;;15.95;77.45;101075.72;110733;1263;22240;-57
2023/05/25 10:15:47;;;;;;;11.40;3.40;;;;;;;16.04;76.35;101080.13;110796;1268;22365;-56
2023/05/25 10:18:21;;;;;;;12.30;3.20;;;;;;;16.11;76.17;101081.00;110729;1264;22237;-57
2023/05/25 10:20:57;;;;;;;14.50;3.20;;;;;;;16.12;75.33;101077.85;110727;1263;22207;-56
2023/05/25 10:23:39;;;;;;;15.40;3.60;;;;;;;16.17;75.73;101076.30;110730;1264;22332;-57
2023/05/25 10:26:12;;;;;;;15.80;3.60;;;;;;;16.30;75.54;101075.04;107428;1270;25394;-56
2023/05/25 10:28:45;;;;;;;14.90;3.50;;;;;;;16.40;75.23;101079.29;107375;1253;87301;-77
2023/05/25 10:31:18;;;;;;;12.20;3.10;;;;;;;16.52;74.57;101077.40;107608;1265;24187;-77
2023/05/25 10:33:49;;;;;;;11.60;2.90;;;;;;;16.61;74.63;101077.27;110647;1269;22475;-77
2023/05/25 10:36:23;;;;;;;13.50;3.50;;;;;;;16.70;74.34;101077.45;108451;1266;25397;-76
2023/05/25 10:38:54;;;;;;;12.40;2.90;;;;;;;16.74;73.35;101070.55;109134;1272;23053;-77
2023/05/25 10:41:26;;;;;;;13.40;2.80;;;;;;;16.77;73.48;101071.45;107762;1265;22540;-77
2023/05/25 10:43:58;;;;;;;16.50;3.70;;;;;;;16.74;72.78;101073.74;109139;1266;22693;-76
2023/05/25 10:46:29;;;;;;;12.00;3.70;;;;;;;16.72;72.81;101078.06;107135;1265;22521;-77
2023/05/25 10:49:01;;;;;;;16.00;3.80;;;;;;;16.69;72.72;101077.69;107568;1265;22521;-76
2023/05/25 10:51:42;;;;;;;11.40;3.20;;;;;;;16.68;73.25;101072.21;107579;1266;23881;-77
2023/05/25 10:54:17;;;;;;;16.00;3.70;;;;;;;16.71;73.48;101067.51;107662;1266;22630;-78
2023/05/25 10:57:11;;;;;;;12.70;3.40;;;;;;;16.76;73.07;101069.19;107634;1264;22694;-76
2023/05/25 10:59:48;;;;;;;14.00;3.20;;;;;;;16.75;72.55;101068.55;109974;1265;22616;-77
2023/05/25 11:02:21;;;;;;;12.80;3.80;;;;;;;16.77;72.75;101068.23;107476;1266;25354;-77
2023/05/25 11:05:12;;;;;;;13.70;3.70;;;;;;;16.84;72.44;101071.77;107483;1262;22559;-76
2023/05/25 11:07:56;;;;;;;13.70;4.00;;;;;;;16.87;72.37;101069.10;107550;1269;22485;-76
2023/05/25 11:10:43;;;;;;;12.20;3.60;;;;;;;16.84;71.61;101068.27;110675;1269;23057;-77
2023/05/25 11:13:33;;;;;;;15.90;3.60;;;;;;;16.84;71.42;101062.98;110684;1259;22378;-77
2023/05/25 11:16:18;;;;;;;10.80;4.00;;;;;;;16.89;71.22;101058.10;110669;1259;22398;-77
2023/05/25 11:18:54;;;;;;;10.70;2.90;;;;;;;16.97;71.49;101055.42;110685;1266;22376;-78
2023/05/25 11:21:45;;;;;;;21.20;3.30;;;;;;;17.10;71.32;101054.38;110715;1272;23462;-78
2023/05/25 11:24:17;;;;;;;13.00;3.30;;;;;;;17.20;71.62;101048.31;110689;1269;22154;-76
2023/05/25 11:27:00;;;;;;;14.20;3.60;;;;;;;17.34;70.94;101044.42;110686;1265;22210;-79
2023/05/25 11:29:36;;;;;;;12.90;3.80;;;;;;;17.43;70.38;101047.08;110675;1266;22498;-77
2023/05/25 11:32:14;;;;;;;15.00;3.30;;;;;;;17.51;70.80;101044.36;110709;1266;22304;-77
2023/05/25 11:34:46;;;;;;;12.50;3.40;;;;;;;17.65;70.43;101042.46;110696;1266;22298;-76